Aeroporto :
LOGIN :

Iscrizione | Disclaimer

   EN    FR    IT 

 










Sommario :    VFR   VFR Marginale   IFR   IFR Intensivo   IFR Molto Intensivo
Visibilità : 
Base nubi : 
>= 8 km
>= 3000ft
5 / 8 km
1000 / 3000 ft
1500m / 5 km
500 / 1000 ft
800 / 1500m
200 / 500 ft
< 800m
< 200 ft
Simboli :   Temporali  Nebbia  Neve Forte  Precipitazioni Forti  Vento > 20 kt
SIGMETs :   Varie  Temporali  Ghiacco  Turbolenza  Onda orograficha  Ceneri Vulcaniche






- Altitudine del aeroporto : 796 ft
- Codice IATA : SYT


LFLN - Saint-Yan

ULTIMO METAR :
  • 141930Z AUTO 01004KT 9999 -RA BKN008 OVC012 03/02 Q0998 TEMPO 1600 -RASN

METARs OBSOLETI :
  • 141900Z AUTO 36003KT 8000 -RA BKN008 BKN012 OVC030 03/03 Q0998 TEMPO 3000 -RA
  • 141830Z AUTO 02003KT 9999 -RA SCT023 OVC029 03/03 Q0998 TEMPO 3000 -RA OVC006
  • 141800Z AUTO VRB02KT 9999 -RADZ FEW011 BKN025 OVC031 04/03 Q0998 TEMPO 3000 -RA OVC006
  • 141730Z AUTO 06004KT 9999 -RA FEW015 BKN022 OVC034 04/02 Q0998 TEMPO BKN008
  • 141700Z AUTO 06005KT 9999 -RA SCT011 SCT020 BKN032 04/02 Q0998 TEMPO BKN008

TAF AMD TAF LFLN
Valido dal 14 a 18 ore il 15 a 03 ore UTC


141805Z 1418/1503 08006KT 9999 FEW008 OVC025
TEMPO 1418/1421 3000 -RA OVC006
TEMPO 1421/1424 1600 -RASN OVC005
PROB40
TEMPO 1500/1503 0800 -SN OVC003



MetMap, La meteo Aeronautica in un colpo d'occhio ! - Copyright ORBIFLY Dicembre 2007 - Disclaimer

ORBIFLY MET'MAP TEAM :

Programmazione e sviluppo : Alexandra Zaïnal
Concezione e sviluppo : Baudouin d'Aumeries
Co-Programmazione e sviluppo : Marc-Olivier Méhu
Supporto tecnico e logistico : Manuel Goepfert
Aiuto per la traduzione : Arnaldo La Scala

Contatto : metmap@orbifly.com




FONTI E CREDITI :

   NOAA